Time;durP1;ratioP1;P1;durP2;ratioP2;P2;SDS_P1;SDS_P2;PMS_P1;PMS_P2;Temp;Humidity;BMP_temperature;BMP_pressure;BME280_temperature;BME280_humidity;BME280_pressure;Samples;Min_cycle;Max_cycle;Signal;HPM_P1;HPM_P2
2022/11/23 00:00:26;;;;;;;5.18;3.30;;;;;;;;;;1270201;23;20026;-79
2022/11/23 00:00:57;;;;;;;5.95;2.60;;;;;;;;;;1264442;23;20060;-78
2022/11/23 00:01:29;;;;;;;5.32;2.85;;;;;;;;;;1258498;23;20442;-79
2022/11/23 00:02:00;;;;;;;4.30;2.50;;;;;;;;;;1258518;23;20038;-81
2022/11/23 00:02:31;;;;;;;7.90;3.30;;;;;;;;;;1253114;23;20080;-79
2022/11/23 00:03:02;;;;;;;6.22;3.55;;;;;;;;;;1258829;23;20086;-79
2022/11/23 00:03:33;;;;;;;5.63;3.10;;;;;;;;;;1264389;23;20521;-78
2022/11/23 00:04:06;;;;;;;6.45;3.30;;;;;;;;;;1270833;23;20008;-77
2022/11/23 00:04:36;;;;;;;5.55;3.38;;;;;;;;;;1270101;23;20016;-76
2022/11/23 00:05:07;;;;;;;5.63;2.95;;;;;;;;;;1270470;23;20041;-79
2022/11/23 00:05:38;;;;;;;6.75;3.53;;;;;;;;;;1270336;23;19994;-78
2022/11/23 00:06:09;;;;;;;6.28;3.10;;;;;;;;;;1270802;23;19994;-79
2022/11/23 00:06:41;;;;;;;7.13;3.53;;;;;;;;;;1269990;23;20001;-77
2022/11/23 00:07:12;;;;;;;6.72;3.25;;;;;;;;;;1270736;23;19993;-79
2022/11/23 00:07:43;;;;;;;7.75;3.80;;;;;;;;;;1270350;23;20013;-79
2022/11/23 00:08:14;;;;;;;5.28;3.17;;;;;;;;;;1264609;23;20057;-80
2022/11/23 00:08:45;;;;;;;6.78;4.03;;;;;;;;;;1264107;23;20001;-79
2022/11/23 00:09:16;;;;;;;6.35;3.38;;;;;;;;;;1257912;23;20051;-79
2022/11/23 00:09:47;;;;;;;3.40;2.58;;;;;;;;;;1259102;23;19999;-78
2022/11/23 00:10:18;;;;;;;8.30;4.35;;;;;;;;;;1264610;23;19994;-78
2022/11/23 00:10:49;;;;;;;5.32;3.83;;;;;;;;;;1264383;23;20097;-80
2022/11/23 00:11:21;;;;;;;6.63;3.95;;;;;;;;;;1270280;23;20101;-79
2022/11/23 00:11:52;;;;;;;5.80;3.50;;;;;;;;;;1270166;23;20023;-79
2022/11/23 00:12:23;;;;;;;7.03;4.63;;;;;;;;;;1270457;23;20006;-79
2022/11/23 00:12:54;;;;;;;6.75;3.83;;;;;;;;;;1270315;23;19997;-79
2022/11/23 00:13:25;;;;;;;7.72;4.72;;;;;;;;;;1270304;23;19997;-78
2022/11/23 00:13:56;;;;;;;7.20;4.22;;;;;;;;;;1270222;23;20005;-80
2022/11/23 00:14:27;;;;;;;6.68;4.03;;;;;;;;;;1264396;23;20010;-79
2022/11/23 00:14:58;;;;;;;7.90;3.47;;;;;;;;;;1264171;23;20037;-80
2022/11/23 00:15:29;;;;;;;5.05;3.17;;;;;;;;;;1264173;23;20033;-80
2022/11/23 00:16:00;;;;;;;6.05;4.18;;;;;;;;;;1264335;23;20009;-78
2022/11/23 00:16:31;;;;;;;7.60;4.30;;;;;;;;;;1270385;23;20005;-80
2022/11/23 00:17:02;;;;;;;8.52;4.65;;;;;;;;;;1270144;23;20017;-78
2022/11/23 00:17:33;;;;;;;6.50;4.82;;;;;;;;;;1269913;23;20006;-80
2022/11/23 00:18:04;;;;;;;8.82;4.47;;;;;;;;;;1269727;23;20007;-79
2022/11/23 00:18:35;;;;;;;6.80;4.35;;;;;;;;;;1264308;23;20414;-78
2022/11/23 00:19:06;;;;;;;5.55;4.82;;;;;;;;;;1270105;23;20682;-78
2022/11/23 00:19:38;;;;;;;6.70;3.80;;;;;;;;;;1270491;23;20006;-79
2022/11/23 00:20:09;;;;;;;5.93;3.38;;;;;;;;;;1270588;23;20006;-78
2022/11/23 00:20:40;;;;;;;7.03;5.03;;;;;;;;;;1270127;23;20006;-80
2022/11/23 00:21:15;;;;;;;6.07;4.38;;;;;;;;;;1270190;23;20032;-79
2022/11/23 00:21:46;;;;;;;9.50;5.20;;;;;;;;;;1270493;23;19997;-78
2022/11/23 00:22:17;;;;;;;8.38;4.70;;;;;;;;;;1270229;23;20029;-79
2022/11/23 00:22:48;;;;;;;6.60;4.40;;;;;;;;;;1270580;23;20016;-78
2022/11/23 00:23:19;;;;;;;8.00;4.00;;;;;;;;;;1269815;23;20002;-80
2022/11/23 00:23:50;;;;;;;5.35;3.22;;;;;;;;;;1270491;23;20002;-80
2022/11/23 00:24:21;;;;;;;9.10;4.30;;;;;;;;;;1270020;23;20457;-79
2022/11/23 00:24:52;;;;;;;9.23;4.85;;;;;;;;;;1270272;23;20364;-79
2022/11/23 00:25:23;;;;;;;7.32;4.15;;;;;;;;;;1270421;23;20315;-80
2022/11/23 00:25:54;;;;;;;5.15;3.60;;;;;;;;;;1270384;23;20010;-78
2022/11/23 00:26:25;;;;;;;7.53;4.40;;;;;;;;;;1270560;23;19993;-79
2022/11/23 00:26:55;;;;;;;10.77;5.13;;;;;;;;;;1276986;23;20008;-78
2022/11/23 00:27:26;;;;;;;4.50;3.42;;;;;;;;;;1270142;23;20516;-79
2022/11/23 00:27:57;;;;;;;6.80;3.88;;;;;;;;;;1270531;23;20393;-79
2022/11/23 00:28:28;;;;;;;7.93;4.57;;;;;;;;;;1270335;23;20024;-78
2022/11/23 00:28:59;;;;;;;8.02;4.95;;;;;;;;;;1270618;23;20001;-79
2022/11/23 00:29:30;;;;;;;7.05;4.38;;;;;;;;;;1276837;23;20001;-78
2022/11/23 00:30:01;;;;;;;6.32;3.95;;;;;;;;;;1270081;23;20005;-80
2022/11/23 00:30:32;;;;;;;5.00;3.63;;;;;;;;;;1264506;23;20006;-80
2022/11/23 00:31:03;;;;;;;6.68;4.60;;;;;;;;;;1264153;23;20025;-79
2022/11/23 00:31:34;;;;;;;7.57;3.63;;;;;;;;;;1264728;23;20002;-79
2022/11/23 00:32:05;;;;;;;6.82;4.20;;;;;;;;;;1269986;23;20414;-78
2022/11/23 00:32:36;;;;;;;8.05;4.75;;;;;;;;;;1264061;23;20006;-79
2022/11/23 00:33:07;;;;;;;8.38;4.70;;;;;;;;;;1265012;23;20006;-80
2022/11/23 00:33:38;;;;;;;5.70;3.67;;;;;;;;;;1270196;23;20019;-78
2022/11/23 00:34:09;;;;;;;8.43;5.40;;;;;;;;;;1264052;23;20012;-79
2022/11/23 00:34:40;;;;;;;7.13;4.30;;;;;;;;;;1264054;23;20005;-80
2022/11/23 00:35:11;;;;;;;5.82;4.40;;;;;;;;;;1264143;23;20422;-80
2022/11/23 00:35:42;;;;;;;8.75;4.32;;;;;;;;;;1264635;23;20021;-80
2022/11/23 00:36:14;;;;;;;8.85;4.18;;;;;;;;;;1264034;23;20481;-81
2022/11/23 00:36:45;;;;;;;10.63;6.50;;;;;;;;;;1264818;23;20338;-79
2022/11/23 00:37:16;;;;;;;8.40;5.00;;;;;;;;;;1264486;23;20366;-78
2022/11/23 00:37:47;;;;;;;6.95;4.82;;;;;;;;;;1270075;23;20023;-80
2022/11/23 00:38:18;;;;;;;7.28;4.70;;;;;;;;;;1270703;23;20056;-80
2022/11/23 00:38:50;;;;;;;5.70;4.57;;;;;;;;;;1270465;23;19997;-80
2022/11/23 00:39:21;;;;;;;11.13;6.28;;;;;;;;;;1269938;23;20405;-80
2022/11/23 00:39:52;;;;;;;7.82;5.95;;;;;;;;;;1270502;23;20565;-78
2022/11/23 00:40:23;;;;;;;8.82;5.32;;;;;;;;;;1270104;23;20389;-78
2022/11/23 00:41:01;;;;;;;7.43;5.88;;;;;;;;;;1270511;23;19998;-80
2022/11/23 00:41:32;;;;;;;9.00;5.32;;;;;;;;;;1268537;23;20142;-79
2022/11/23 00:42:03;;;;;;;6.45;4.93;;;;;;;;;;1266028;23;20207;-80
2022/11/23 00:42:34;;;;;;;6.35;4.05;;;;;;;;;;1270225;23;19994;-78
2022/11/23 00:43:05;;;;;;;5.30;4.80;;;;;;;;;;1270966;23;20025;-78
2022/11/23 00:43:36;;;;;;;12.68;6.95;;;;;;;;;;1276819;23;20005;-77
2022/11/23 00:44:07;;;;;;;8.40;5.53;;;;;;;;;;1270554;23;20005;-79
2022/11/23 00:44:38;;;;;;;8.23;5.90;;;;;;;;;;1270027;23;20009;-80
2022/11/23 00:45:09;;;;;;;6.57;4.75;;;;;;;;;;1270428;23;20008;-79
2022/11/23 00:45:40;;;;;;;6.72;4.85;;;;;;;;;;1270738;23;20438;-79
2022/11/23 00:46:18;;;;;;;8.93;5.82;;;;;;;;;;1270714;23;20445;-79
2022/11/23 00:46:49;;;;;;;8.90;5.22;;;;;;;;;;1270578;23;20420;-78
2022/11/23 00:47:20;;;;;;;8.82;5.57;;;;;;;;;;1264094;23;20533;-78
2022/11/23 00:47:51;;;;;;;4.22;3.78;;;;;;;;;;1266012;23;20006;-80
2022/11/23 00:48:22;;;;;;;6.68;4.78;;;;;;;;;;1264439;23;20504;-79
2022/11/23 00:48:55;;;;;;;7.88;5.03;;;;;;;;;;1258201;23;20049;-81
2022/11/23 00:49:26;;;;;;;7.57;5.40;;;;;;;;;;1258767;23;20410;-80
2022/11/23 00:49:56;;;;;;;9.50;5.97;;;;;;;;;;1263942;23;20730;-79
2022/11/23 00:50:27;;;;;;;10.13;6.10;;;;;;;;;;1258897;23;20077;-78
2022/11/23 00:51:02;;;;;;;9.10;5.93;;;;;;;;;;1258405;23;20109;-80
2022/11/23 00:51:34;;;;;;;9.13;5.03;;;;;;;;;;1259693;23;20100;-79
2022/11/23 00:52:05;;;;;;;7.40;4.70;;;;;;;;;;1264687;23;20005;-79
2022/11/23 00:52:36;;;;;;;8.02;4.90;;;;;;;;;;1265870;23;20006;-79
2022/11/23 00:53:07;;;;;;;7.65;5.30;;;;;;;;;;1271228;23;20386;-79
2022/11/23 00:53:39;;;;;;;6.97;4.82;;;;;;;;;;1270948;23;19998;-80
2022/11/23 00:54:10;;;;;;;7.35;6.13;;;;;;;;;;1270610;23;20005;-80
2022/11/23 00:54:41;;;;;;;7.75;5.35;;;;;;;;;;1270541;23;20072;-78
2022/11/23 00:55:12;;;;;;;9.80;4.82;;;;;;;;;;1264190;23;20002;-79
2022/11/23 00:55:50;;;;;;;8.27;5.15;;;;;;;;;;1264771;23;20025;-80
2022/11/23 00:56:21;;;;;;;9.13;5.22;;;;;;;;;;1270421;23;20060;-81
2022/11/23 00:56:52;;;;;;;7.53;5.57;;;;;;;;;;1270435;23;20097;-80
2022/11/23 00:57:23;;;;;;;9.45;6.13;;;;;;;;;;1269850;23;20005;-80
2022/11/23 00:57:54;;;;;;;10.65;5.90;;;;;;;;;;1270310;23;20080;-79
2022/11/23 00:58:25;;;;;;;6.00;4.60;;;;;;;;;;1270174;23;20647;-80
2022/11/23 00:58:57;;;;;;;5.68;3.90;;;;;;;;;;1270487;23;20005;-80
2022/11/23 00:59:28;;;;;;;6.45;4.95;;;;;;;;;;1270278;23;19998;-79
2022/11/23 00:59:59;;;;;;;5.85;3.67;;;;;;;;;;1270344;23;19998;-78
2022/11/23 01:00:30;;;;;;;7.65;5.22;;;;;;;;;;1270091;23;19998;-80
2022/11/23 01:01:05;;;;;;;7.40;4.50;;;;;;;;;;1270460;23;19997;-79
2022/11/23 01:01:36;;;;;;;10.30;5.88;;;;;;;;;;1270197;23;20024;-81
2022/11/23 01:02:07;;;;;;;11.07;6.10;;;;;;;;;;1271726;23;20048;-80
2022/11/23 01:02:38;;;;;;;8.40;5.57;;;;;;;;;;1267905;23;20001;-80
2022/11/23 01:03:09;;;;;;;6.82;5.30;;;;;;;;;;1264144;23;20082;-80
2022/11/23 01:03:44;;;;;;;10.10;5.03;;;;;;;;;;1263897;23;20454;-79
2022/11/23 01:04:15;;;;;;;9.98;6.50;;;;;;;;;;1265520;23;20001;-79
2022/11/23 01:04:46;;;;;;;7.53;5.20;;;;;;;;;;1270062;23;19993;-79
2022/11/23 01:05:17;;;;;;;6.15;3.80;;;;;;;;;;1263985;23;20037;-80
2022/11/23 01:05:48;;;;;;;8.60;4.95;;;;;;;;;;1264775;23;20002;-79
2022/11/23 01:06:20;;;;;;;7.55;5.75;;;;;;;;;;1270311;23;20009;-78
2022/11/23 01:06:54;;;;;;;7.10;5.32;;;;;;;;;;1270412;23;19998;-79
2022/11/23 01:07:29;;;;;;;9.18;5.13;;;;;;;;;;1270279;23;20025;-80
2022/11/23 01:08:00;;;;;;;7.70;5.55;;;;;;;;;;1272221;23;19997;-80
2022/11/23 01:08:32;;;;;;;8.68;5.88;;;;;;;;;;1276803;23;20077;-79
2022/11/23 01:09:13;;;;;;;7.43;4.95;;;;;;;;;;1277068;23;20004;-80
2022/11/23 01:09:44;;;;;;;6.78;4.82;;;;;;;;;;1270248;23;20500;-79
2022/11/23 01:10:15;;;;;;;8.95;6.30;;;;;;;;;;1270470;23;20500;-78
2022/11/23 01:10:46;;;;;;;10.05;5.85;;;;;;;;;;1264331;23;20037;-78
2022/11/23 01:11:17;;;;;;;8.20;6.35;;;;;;;;;;1264486;23;20328;-80
2022/11/23 01:11:48;;;;;;;10.45;6.22;;;;;;;;;;1270571;23;20048;-79
2022/11/23 01:12:19;;;;;;;6.45;4.18;;;;;;;;;;1264547;23;20057;-80
2022/11/23 01:12:50;;;;;;;6.80;3.83;;;;;;;;;;1270372;23;20001;-80
2022/11/23 01:13:21;;;;;;;8.18;6.10;;;;;;;;;;1270587;23;20481;-80
2022/11/23 01:13:52;;;;;;;8.77;5.50;;;;;;;;;;1270687;23;20036;-80
2022/11/23 01:14:23;;;;;;;10.88;5.90;;;;;;;;;;1270941;23;20084;-80
2022/11/23 01:14:54;;;;;;;11.52;5.60;;;;;;;;;;1276792;23;20008;-80
2022/11/23 01:15:26;;;;;;;9.40;6.00;;;;;;;;;;1276843;23;20001;-79
2022/11/23 01:15:57;;;;;;;9.18;6.15;;;;;;;;;;1276811;23;20456;-80
2022/11/23 01:16:29;;;;;;;7.20;4.75;;;;;;;;;;1270253;23;20105;-79
2022/11/23 01:17:00;;;;;;;9.45;5.72;;;;;;;;;;1270582;23;20068;-80
2022/11/23 01:17:31;;;;;;;11.88;4.72;;;;;;;;;;1270242;23;20011;-80
2022/11/23 01:18:02;;;;;;;5.78;4.93;;;;;;;;;;1264718;23;20066;-80
2022/11/23 01:18:33;;;;;;;8.65;5.82;;;;;;;;;;1270064;23;20005;-80
2022/11/23 01:19:05;;;;;;;9.35;6.13;;;;;;;;;;1263858;23;20001;-79
2022/11/23 01:19:36;;;;;;;5.93;5.03;;;;;;;;;;1265010;23;20049;-79
2022/11/23 01:20:08;;;;;;;6.43;4.40;;;;;;;;;;1270137;23;20001;-80
2022/11/23 01:20:39;;;;;;;9.27;5.60;;;;;;;;;;1270256;23;20469;-80
2022/11/23 01:21:10;;;;;;;10.20;5.88;;;;;;;;;;1270089;23;20009;-80
2022/11/23 01:21:41;;;;;;;7.50;5.70;;;;;;;;;;1269810;23;20084;-80
2022/11/23 01:22:12;;;;;;;8.63;5.30;;;;;;;;;;1264746;23;20085;-80
2022/11/23 01:22:43;;;;;;;9.60;5.82;;;;;;;;;;1270636;23;20004;-81
2022/11/23 01:23:14;;;;;;;6.30;5.55;;;;;;;;;;1270168;23;20560;-81
2022/11/23 01:23:45;;;;;;;8.02;4.90;;;;;;;;;;1269707;23;20004;-80
2022/11/23 01:24:17;;;;;;;7.93;5.22;;;;;;;;;;1264006;23;20431;-81
2022/11/23 01:24:49;;;;;;;8.88;6.32;;;;;;;;;;1265169;23;19998;-79
2022/11/23 01:25:20;;;;;;;6.65;5.00;;;;;;;;;;1263807;23;20002;-80
2022/11/23 01:25:51;;;;;;;8.00;5.10;;;;;;;;;;1259061;23;20003;-80
2022/11/23 01:26:22;;;;;;;9.23;6.05;;;;;;;;;;1264130;23;19997;-79
2022/11/23 01:26:53;;;;;;;9.02;6.07;;;;;;;;;;1264855;23;20014;-79
2022/11/23 01:27:24;;;;;;;6.78;5.03;;;;;;;;;;1264613;23;20002;-79
2022/11/23 01:27:55;;;;;;;7.75;5.20;;;;;;;;;;1270365;23;19998;-80
2022/11/23 01:28:26;;;;;;;10.32;6.43;;;;;;;;;;1270419;23;19998;-79
2022/11/23 01:28:57;;;;;;;7.05;5.30;;;;;;;;;;1270317;23;20069;-79
2022/11/23 01:29:28;;;;;;;7.47;4.63;;;;;;;;;;1270379;23;20017;-79
2022/11/23 01:29:59;;;;;;;7.45;5.72;;;;;;;;;;1271111;23;20381;-80
2022/11/23 01:30:30;;;;;;;7.10;5.20;;;;;;;;;;1270529;23;20080;-79
2022/11/23 01:31:08;;;;;;;8.32;5.55;;;;;;;;;;1270490;23;20491;-80
2022/11/23 01:31:39;;;;;;;13.88;7.32;;;;;;;;;;1270474;23;19990;-80
2022/11/23 01:32:10;;;;;;;9.40;5.35;;;;;;;;;;1273026;23;19989;-79
2022/11/23 01:32:41;;;;;;;9.57;6.53;;;;;;;;;;1276993;23;20020;-79
2022/11/23 01:33:12;;;;;;;7.07;5.07;;;;;;;;;;1276838;23;19986;-80
2022/11/23 01:33:43;;;;;;;6.93;5.30;;;;;;;;;;1270222;23;20044;-79
2022/11/23 01:34:15;;;;;;;8.13;5.30;;;;;;;;;;1264378;23;19998;-79
2022/11/23 01:34:46;;;;;;;11.27;6.50;;;;;;;;;;1264629;23;20624;-80
2022/11/23 01:35:17;;;;;;;8.00;4.80;;;;;;;;;;1265137;23;20501;-80
2022/11/23 01:35:48;;;;;;;9.82;6.05;;;;;;;;;;1264748;23;20152;-80
2022/11/23 01:36:20;;;;;;;9.55;5.63;;;;;;;;;;1270219;23;20025;-79
2022/11/23 01:36:51;;;;;;;7.40;5.07;;;;;;;;;;1270414;23;20009;-78
2022/11/23 01:37:22;;;;;;;7.07;6.07;;;;;;;;;;1270465;23;20076;-79
2022/11/23 01:37:53;;;;;;;9.77;6.22;;;;;;;;;;1270735;23;20338;-78
2022/11/23 01:38:24;;;;;;;8.00;5.93;;;;;;;;;;1270448;23;19993;-79
2022/11/23 01:38:55;;;;;;;7.82;5.45;;;;;;;;;;1271028;23;20075;-78
2022/11/23 01:39:26;;;;;;;6.75;4.72;;;;;;;;;;1276915;23;20347;-78
2022/11/23 01:39:57;;;;;;;6.57;4.50;;;;;;;;;;1277374;23;20047;-79
2022/11/23 01:40:28;;;;;;;6.03;4.57;;;;;;;;;;1276942;23;19997;-79
2022/11/23 01:40:59;;;;;;;12.00;6.05;;;;;;;;;;1270407;23;20688;-80
2022/11/23 01:41:34;;;;;;;8.48;5.53;;;;;;;;;;1264305;23;20448;-79
2022/11/23 01:42:07;;;;;;;6.03;4.68;;;;;;;;;;1264362;23;20001;-78
2022/11/23 01:42:58;;;;;;;7.80;4.88;;;;;;;;;;1266098;23;20069;-79
2022/11/23 01:43:28;;;;;;;7.30;5.80;;;;;;;;;;1264162;23;20005;-78
2022/11/23 01:44:00;;;;;;;8.82;5.32;;;;;;;;;;1269123;23;20005;-77
2022/11/23 01:44:32;;;;;;;8.25;6.78;;;;;;;;;;1270427;23;20036;-78
2022/11/23 01:45:22;;;;;;;9.63;5.40;;;;;;;;;;1270462;23;20052;-78
2022/11/23 01:45:52;;;;;;;9.25;6.28;;;;;;;;;;1270539;23;20406;-78
2022/11/23 01:46:23;;;;;;;13.10;6.78;;;;;;;;;;1266076;23;20434;-78
2022/11/23 01:46:57;;;;;;;13.35;7.38;;;;;;;;;;1270572;23;20484;-78
2022/11/23 01:47:28;;;;;;;7.85;5.95;;;;;;;;;;1270780;23;20028;-79
2022/11/23 01:47:59;;;;;;;6.30;4.90;;;;;;;;;;1270950;23;19997;-79
2022/11/23 01:48:40;;;;;;;7.10;5.05;;;;;;;;;;1269960;23;20144;-80
2022/11/23 01:49:11;;;;;;;9.77;5.95;;;;;;;;;;1270554;23;20009;-79
2022/11/23 01:49:44;;;;;;;8.57;5.10;;;;;;;;;;1270468;23;20497;-79
2022/11/23 01:50:15;;;;;;;11.65;5.88;;;;;;;;;;1270504;23;20048;-80
2022/11/23 01:50:48;;;;;;;8.38;5.55;;;;;;;;;;1271670;23;20005;-80
2022/11/23 01:51:27;;;;;;;9.13;6.32;;;;;;;;;;1276656;23;20059;-80
2022/11/23 01:51:58;;;;;;;;;;;;;;;;;;1277738;23;20001;-81
2022/11/23 01:52:29;;;;;;;9.87;6.57;;;;;;;;;;1270558;23;19911;-80
2022/11/23 01:53:00;;;;;;;9.52;5.82;;;;;;;;;;1270353;23;20229;-79
2022/11/23 01:53:31;;;;;;;8.13;5.22;;;;;;;;;;1264097;23;20006;-79
2022/11/23 01:54:26;;;;;;;11.02;5.70;;;;;;;;;;1264661;23;20013;-79
2022/11/23 01:54:58;;;;;;;7.80;4.68;;;;;;;;;;1255448;23;20727;-79
2022/11/23 01:55:29;;;;;;;12.65;5.22;;;;;;;;;;1264721;23;19994;-80
2022/11/23 01:56:01;;;;;;;9.13;5.20;;;;;;;;;;1269709;23;20021;-79
2022/11/23 01:56:35;;;;;;;6.63;5.60;;;;;;;;;;1270386;23;20040;-80
2022/11/23 01:57:08;;;;;;;8.10;5.00;;;;;;;;;;1264346;23;20206;-79
2022/11/23 01:57:41;;;;;;;7.13;5.25;;;;;;;;;;1264135;23;20441;-79
2022/11/23 01:58:13;;;;;;;8.77;5.53;;;;;;;;;;1262817;23;20006;-79
2022/11/23 01:58:47;;;;;;;11.38;5.97;;;;;;;;;;1264590;23;20002;-79
2022/11/23 01:59:19;;;;;;;10.23;5.22;;;;;;;;;;1270120;23;20013;-79
2022/11/23 01:59:51;;;;;;;7.85;4.57;;;;;;;;;;1270481;23;20006;-79
2022/11/23 02:00:22;;;;;;;11.45;5.07;;;;;;;;;;1269040;23;19997;-79
2022/11/23 02:00:53;;;;;;;7.43;5.00;;;;;;;;;;1270718;23;20609;-79
2022/11/23 02:01:24;;;;;;;10.05;4.95;;;;;;;;;;1270126;23;20033;-80
2022/11/23 02:01:55;;;;;;;7.30;4.80;;;;;;;;;;1270715;23;20001;-80
2022/11/23 02:02:27;;;;;;;8.90;4.88;;;;;;;;;;1269773;23;20010;-81
2022/11/23 02:02:59;;;;;;;7.65;4.10;;;;;;;;;;1270318;23;20092;-80
2022/11/23 02:03:31;;;;;;;7.80;4.78;;;;;;;;;;1270429;23;20010;-79
2022/11/23 02:04:03;;;;;;;7.03;5.43;;;;;;;;;;1270562;23;20014;-80
2022/11/23 02:04:36;;;;;;;6.30;4.10;;;;;;;;;;1270469;23;20073;-79
2022/11/23 02:05:07;;;;;;;8.63;4.82;;;;;;;;;;1271736;23;20342;-80
2022/11/23 02:05:42;;;;;;;9.07;5.95;;;;;;;;;;1270256;23;20037;-78
2022/11/23 02:06:19;;;;;;;10.77;4.82;;;;;;;;;;1270625;23;20005;-79
2022/11/23 02:06:50;;;;;;;6.72;5.20;;;;;;;;;;1264374;23;20060;-79
2022/11/23 02:07:22;;;;;;;7.53;5.25;;;;;;;;;;1266433;23;20041;-79
2022/11/23 02:07:54;;;;;;;7.40;5.13;;;;;;;;;;1264427;23;20006;-78
2022/11/23 02:08:26;;;;;;;9.43;5.65;;;;;;;;;;1258163;23;20073;-78
2022/11/23 02:08:57;;;;;;;9.02;5.15;;;;;;;;;;1259622;23;20032;-79
2022/11/23 02:09:31;;;;;;;6.18;4.20;;;;;;;;;;1258880;23;20007;-78
2022/11/23 02:10:02;;;;;;;8.80;4.78;;;;;;;;;;1265677;23;20036;-79
2022/11/23 02:10:34;;;;;;;6.03;3.88;;;;;;;;;;1270423;23;20001;-79
2022/11/23 02:11:05;;;;;;;11.48;6.28;;;;;;;;;;1265883;23;20594;-79
2022/11/23 02:11:36;;;;;;;7.47;4.80;;;;;;;;;;1270278;23;20353;-79
2022/11/23 02:12:10;;;;;;;7.65;4.95;;;;;;;;;;1264624;23;20002;-77
2022/11/23 02:12:41;;;;;;;7.47;5.22;;;;;;;;;;1259104;23;20002;-78
2022/11/23 02:13:13;;;;;;;5.90;4.45;;;;;;;;;;1264609;23;20030;-80
2022/11/23 02:13:45;;;;;;;5.35;3.90;;;;;;;;;;1264411;23;20444;-79
2022/11/23 02:14:16;;;;;;;6.72;4.32;;;;;;;;;;1264629;23;20442;-78
2022/11/23 02:14:47;;;;;;;8.48;4.78;;;;;;;;;;1264393;23;19998;-78
2022/11/23 02:15:18;;;;;;;12.00;6.03;;;;;;;;;;1258648;23;20010;-79
2022/11/23 02:15:49;;;;;;;8.95;4.80;;;;;;;;;;1264188;23;20382;-79
2022/11/23 02:16:20;;;;;;;10.45;5.45;;;;;;;;;;1258978;23;20658;-78
2022/11/23 02:16:51;;;;;;;9.68;4.00;;;;;;;;;;1258767;23;20758;-80
2022/11/23 02:17:22;;;;;;;9.02;4.68;;;;;;;;;;1264524;23;19994;-79
2022/11/23 02:17:53;;;;;;;8.73;4.68;;;;;;;;;;1258538;23;20323;-79
2022/11/23 02:18:29;;;;;;;9.38;4.30;;;;;;;;;;1258402;23;20002;-78
2022/11/23 02:19:00;;;;;;;10.63;5.78;;;;;;;;;;1264205;23;20422;-77
2022/11/23 02:19:49;;;;;;;8.20;4.95;;;;;;;;;;1265404;23;20068;-78
2022/11/23 02:20:20;;;;;;;10.93;5.00;;;;;;;;;;1270357;23;20036;-80
2022/11/23 02:20:51;;;;;;;7.28;4.43;;;;;;;;;;1264343;23;20010;-79
2022/11/23 02:21:22;;;;;;;5.43;3.60;;;;;;;;;;1268403;23;20009;-78
2022/11/23 02:21:53;;;;;;;5.18;3.42;;;;;;;;;;1270732;23;20001;-79
2022/11/23 02:22:45;;;;;;;5.60;3.95;;;;;;;;;;1270431;23;19997;-80
2022/11/23 02:23:27;;;;;;;8.90;4.05;;;;;;;;;;1268558;23;20438;-79
2022/11/23 02:24:01;;;;;;;6.80;4.72;;;;;;;;;;1270539;23;19998;-79
2022/11/23 02:24:35;;;;;;;11.70;4.10;;;;;;;;;;1270231;23;20366;-79
2022/11/23 02:25:09;;;;;;;8.20;5.30;;;;;;;;;;1274880;23;20049;-79
2022/11/23 02:25:40;;;;;;;7.90;3.88;;;;;;;;;;1270157;23;20009;-79
2022/11/23 02:26:12;;;;;;;6.57;3.97;;;;;;;;;;1264386;23;20006;-81
2022/11/23 02:26:43;;;;;;;7.20;4.20;;;;;;;;;;1264511;23;19998;-78
2022/11/23 02:27:15;;;;;;;10.30;5.75;;;;;;;;;;1265118;23;20067;-79
2022/11/23 02:27:46;;;;;;;7.18;4.50;;;;;;;;;;1265274;23;20002;-79
2022/11/23 02:28:26;;;;;;;6.50;4.05;;;;;;;;;;1270412;23;20089;-79
2022/11/23 02:29:03;;;;;;;7.70;5.25;;;;;;;;;;1270549;23;20037;-78
2022/11/23 02:29:34;;;;;;;9.18;4.55;;;;;;;;;;1270305;23;20377;-79
2022/11/23 02:30:05;;;;;;;12.60;5.75;;;;;;;;;;1270652;23;20084;-79
2022/11/23 02:30:37;;;;;;;9.85;3.75;;;;;;;;;;1270252;23;20002;-80
2022/11/23 02:31:08;;;;;;;8.65;4.05;;;;;;;;;;1271559;23;20253;-80
2022/11/23 02:31:39;;;;;;;6.22;3.67;;;;;;;;;;1270368;23;20012;-79
2022/11/23 02:32:10;;;;;;;6.88;4.53;;;;;;;;;;1264403;23;20006;-80
2022/11/23 02:32:42;;;;;;;7.05;4.80;;;;;;;;;;1263709;23;20009;-79
2022/11/23 02:33:13;;;;;;;7.18;3.67;;;;;;;;;;1264872;23;20006;-79
2022/11/23 02:33:44;;;;;;;5.78;3.65;;;;;;;;;;1270278;23;20029;-79
2022/11/23 02:34:16;;;;;;;8.60;3.50;;;;;;;;;;1264593;23;20010;-79
2022/11/23 02:34:47;;;;;;;8.40;4.32;;;;;;;;;;1265040;23;20001;-81
2022/11/23 02:35:18;;;;;;;6.30;3.90;;;;;;;;;;1270301;23;20029;-80
2022/11/23 02:35:53;;;;;;;5.75;4.50;;;;;;;;;;1271227;23;20140;-79
2022/11/23 02:36:35;;;;;;;7.30;3.95;;;;;;;;;;1276994;23;20008;-80
2022/11/23 02:37:08;;;;;;;6.32;3.50;;;;;;;;;;1270467;23;20037;-80
2022/11/23 02:37:39;;;;;;;6.55;4.32;;;;;;;;;;1264103;23;20521;-79
2022/11/23 02:38:10;;;;;;;6.82;4.55;;;;;;;;;;1264345;23;19998;-79
2022/11/23 02:38:41;;;;;;;7.00;4.50;;;;;;;;;;1265012;23;20025;-79
2022/11/23 02:39:15;;;;;;;6.13;2.80;;;;;;;;;;1264160;23;20462;-80
2022/11/23 02:39:48;;;;;;;7.63;3.60;;;;;;;;;;1264605;23;20076;-79
2022/11/23 02:40:24;;;;;;;7.65;4.18;;;;;;;;;;1265541;23;20006;-79
2022/11/23 02:40:55;;;;;;;6.05;3.85;;;;;;;;;;1270401;23;21025;-80
2022/11/23 02:41:27;;;;;;;7.18;3.85;;;;;;;;;;1270393;23;20041;-79
2022/11/23 02:41:58;;;;;;;6.60;3.67;;;;;;;;;;1269074;23;20012;-79
2022/11/23 02:42:30;;;;;;;11.15;4.22;;;;;;;;;;1270385;23;20032;-80
2022/11/23 02:43:02;;;;;;;8.40;4.00;;;;;;;;;;1270775;23;20001;-79
2022/11/23 02:43:32;;;;;;;8.88;3.83;;;;;;;;;;1270348;23;20567;-79
2022/11/23 02:44:05;;;;;;;9.98;4.22;;;;;;;;;;1263480;23;20394;-80
2022/11/23 02:44:41;;;;;;;8.23;4.15;;;;;;;;;;1264291;23;20010;-79
2022/11/23 02:45:28;;;;;;;9.05;4.75;;;;;;;;;;1264079;23;20018;-79
2022/11/23 02:46:01;;;;;;;4.40;3.33;;;;;;;;;;1264540;23;20632;-80
2022/11/23 02:46:32;;;;;;;8.82;4.00;;;;;;;;;;1269181;23;20018;-79
2022/11/23 02:47:04;;;;;;;6.35;3.75;;;;;;;;;;1268085;23;20021;-80
2022/11/23 02:47:35;;;;;;;7.35;4.15;;;;;;;;;;1270683;23;20032;-80
2022/11/23 02:48:06;;;;;;;6.60;4.30;;;;;;;;;;1264394;23;20041;-78
2022/11/23 02:48:37;;;;;;;5.95;4.10;;;;;;;;;;1258184;23;20010;-80
2022/11/23 02:49:07;;;;;;;6.28;4.55;;;;;;;;;;1258881;23;20014;-81
2022/11/23 02:49:40;;;;;;;8.35;4.50;;;;;;;;;;1264208;23;20014;-80
2022/11/23 02:50:11;;;;;;;6.32;3.92;;;;;;;;;;1259358;23;20085;-80
2022/11/23 02:50:42;;;;;;;5.97;3.65;;;;;;;;;;1264988;23;20006;-79
2022/11/23 02:51:13;;;;;;;8.05;4.28;;;;;;;;;;1270315;23;20072;-81
2022/11/23 02:51:44;;;;;;;8.73;3.60;;;;;;;;;;1264701;23;20533;-80
2022/11/23 02:52:16;;;;;;;6.05;3.42;;;;;;;;;;1270727;23;20414;-80
2022/11/23 02:52:47;;;;;;;8.65;4.28;;;;;;;;;;1271004;23;20031;-79
2022/11/23 02:53:19;;;;;;;7.53;3.88;;;;;;;;;;1271267;23;20007;-80
2022/11/23 02:53:50;;;;;;;9.02;4.63;;;;;;;;;;1277234;23;20380;-80
2022/11/23 02:54:21;;;;;;;10.02;4.88;;;;;;;;;;1270108;23;20555;-80
2022/11/23 02:54:52;;;;;;;11.75;4.00;;;;;;;;;;1270532;23;20138;-79
2022/11/23 02:55:23;;;;;;;6.65;3.70;;;;;;;;;;1270504;23;20102;-79
2022/11/23 02:55:54;;;;;;;6.85;3.78;;;;;;;;;;1270939;23;20009;-80
2022/11/23 02:56:25;;;;;;;7.82;4.28;;;;;;;;;;1270236;23;20099;-80
2022/11/23 02:56:56;;;;;;;8.45;3.95;;;;;;;;;;1270629;23;20005;-80
2022/11/23 02:57:26;;;;;;;9.85;3.75;;;;;;;;;;1264277;23;20009;-79
2022/11/23 02:57:57;;;;;;;6.38;3.55;;;;;;;;;;1265074;23;20005;-79
2022/11/23 02:58:28;;;;;;;9.65;4.72;;;;;;;;;;1264351;23;20010;-79
2022/11/23 02:58:59;;;;;;;11.52;4.95;;;;;;;;;;1264776;23;20012;-79
2022/11/23 02:59:33;;;;;;;5.63;3.65;;;;;;;;;;1270775;23;20388;-79
2022/11/23 03:00:05;;;;;;;6.82;3.92;;;;;;;;;;1270391;23;20001;-79
2022/11/23 03:00:36;;;;;;;6.90;3.97;;;;;;;;;;1270769;23;20647;-79
2022/11/23 03:01:07;;;;;;;6.05;4.18;;;;;;;;;;1271897;23;20009;-77
2022/11/23 03:01:41;;;;;;;7.55;4.00;;;;;;;;;;1270115;23;20434;-79
2022/11/23 03:02:12;;;;;;;7.28;4.57;;;;;;;;;;1264319;23;20010;-78
2022/11/23 03:02:43;;;;;;;6.93;4.30;;;;;;;;;;1264473;23;20037;-79
2022/11/23 03:03:14;;;;;;;7.10;3.63;;;;;;;;;;1265416;23;20066;-80
2022/11/23 03:03:45;;;;;;;6.50;3.88;;;;;;;;;;1264439;23;20093;-79
2022/11/23 03:04:16;;;;;;;7.13;4.25;;;;;;;;;;1264595;23;20443;-78
2022/11/23 03:04:47;;;;;;;6.57;4.32;;;;;;;;;;1270242;23;20433;-79
2022/11/23 03:05:17;;;;;;;6.68;3.60;;;;;;;;;;1270443;23;19994;-80
2022/11/23 03:05:48;;;;;;;5.53;3.33;;;;;;;;;;1270648;23;20349;-79
2022/11/23 03:06:19;;;;;;;6.20;3.33;;;;;;;;;;1269595;23;19997;-79
2022/11/23 03:06:50;;;;;;;9.00;4.28;;;;;;;;;;1270459;23;20005;-79
2022/11/23 03:07:21;;;;;;;6.13;3.72;;;;;;;;;;1270193;23;20406;-80
2022/11/23 03:07:52;;;;;;;4.80;3.40;;;;;;;;;;1270729;23;20707;-79
2022/11/23 03:08:23;;;;;;;7.35;3.80;;;;;;;;;;1270051;23;20055;-79
2022/11/23 03:08:54;;;;;;;6.63;2.85;;;;;;;;;;1270603;23;19998;-80
2022/11/23 03:09:25;;;;;;;9.02;3.60;;;;;;;;;;1270080;23;20526;-78
2022/11/23 03:09:56;;;;;;;8.80;3.72;;;;;;;;;;1270112;23;20032;-80
2022/11/23 03:10:27;;;;;;;7.22;3.60;;;;;;;;;;1264328;23;20045;-80
2022/11/23 03:11:00;;;;;;;8.07;3.90;;;;;;;;;;1264908;23;20518;-79
2022/11/23 03:11:32;;;;;;;6.70;3.78;;;;;;;;;;1270144;23;20028;-80